createdAt,value
2022-10-17T00:01:30.728Z,101748.54
2022-10-17T00:04:37.091Z,101752.41
2022-10-17T00:07:42.116Z,101757.72
2022-10-17T00:10:48.138Z,101755.05
2022-10-17T00:13:54.240Z,101754.51
2022-10-17T00:17:00.881Z,101764.23
2022-10-17T00:20:07.353Z,101762.07
2022-10-17T00:23:13.693Z,101764.72
2022-10-17T00:26:20.222Z,101769.23
2022-10-17T00:29:25.717Z,101764.44
2022-10-17T00:32:31.785Z,101765.95
2022-10-17T00:35:38.300Z,101769.00
2022-10-17T00:38:44.940Z,101769.28
2022-10-17T00:41:51.790Z,101778.87
2022-10-17T00:45:03.029Z,101776.07
2022-10-17T00:48:21.212Z,101782.73
2022-10-17T00:51:16.688Z,101779.41
2022-10-17T00:54:23.206Z,101780.14
2022-10-17T00:57:29.737Z,101781.27
2022-10-17T01:00:35.015Z,101794.78
2022-10-17T01:03:40.596Z,101794.37
2022-10-17T01:06:47.104Z,101794.74
2022-10-17T01:09:55.287Z,101793.42
2022-10-17T01:13:26.929Z,101797.06
2022-10-17T01:16:59.182Z,101804.23
2022-10-17T01:20:31.017Z,101801.31
2022-10-17T01:24:16.014Z,101800.73
2022-10-17T01:27:40.739Z,101803.77
2022-10-17T01:31:30.933Z,101800.16
2022-10-17T01:34:59.527Z,101803.51
2022-10-17T01:38:13.316Z,101802.78
2022-10-17T01:41:40.705Z,101809.02
2022-10-17T01:45:02.369Z,101804.34
2022-10-17T01:48:10.152Z,101808.27
2022-10-17T01:51:19.163Z,101814.70
2022-10-17T01:54:18.765Z,101813.04
2022-10-17T01:57:35.353Z,101814.64
2022-10-17T02:00:42.971Z,101804.36
2022-10-17T02:03:49.081Z,101808.61
2022-10-17T02:06:54.883Z,101814.70
2022-10-17T02:10:01.411Z,101811.92
2022-10-17T02:13:15.038Z,101811.50
2022-10-17T02:16:59.322Z,101807.23
2022-10-17T02:20:24.359Z,101804.78
2022-10-17T02:23:49.137Z,101803.34
2022-10-17T02:27:13.198Z,101797.70
2022-10-17T02:30:39.456Z,101796.41
2022-10-17T02:33:54.945Z,101797.73
2022-10-17T02:37:10.307Z,101792.51
2022-10-17T02:40:15.920Z,101799.34
2022-10-17T02:43:23.012Z,101792.69
2022-10-17T02:46:30.938Z,101798.91
2022-10-17T02:49:48.717Z,101806.59
2022-10-17T02:53:10.941Z,101809.57
2022-10-17T02:56:19.208Z,101809.00
2022-10-17T02:59:25.096Z,101810.23
2022-10-17T03:02:31.736Z,101804.06
2022-10-17T03:05:41.847Z,101808.07
2022-10-17T03:08:47.031Z,101813.00
2022-10-17T03:11:53.460Z,101808.82
2022-10-17T03:14:59.784Z,101809.69
2022-10-17T03:18:06.418Z,101810.98
2022-10-17T03:21:12.739Z,101808.64
2022-10-17T03:24:19.274Z,101809.52
2022-10-17T03:27:25.154Z,101815.30
2022-10-17T03:30:31.022Z,101819.69
2022-10-17T03:33:36.759Z,101816.86
2022-10-17T03:36:43.141Z,101823.02
2022-10-17T03:39:49.459Z,101822.70
2022-10-17T03:42:54.993Z,101828.80
2022-10-17T03:46:01.541Z,101829.43
2022-10-17T03:49:08.446Z,101823.42
2022-10-17T03:52:14.319Z,101821.34
2022-10-17T03:55:19.129Z,101820.50
2022-10-17T03:58:23.866Z,101824.25
2022-10-17T04:01:32.203Z,101820.36
2022-10-17T04:04:38.714Z,101821.78
2022-10-17T04:07:44.700Z,101824.91
2022-10-17T04:10:51.122Z,101826.16
2022-10-17T04:13:58.889Z,101830.84
2022-10-17T04:17:05.513Z,101834.28
2022-10-17T04:20:10.920Z,101831.25
2022-10-17T04:23:16.144Z,101828.05
2022-10-17T04:26:22.708Z,101840.08
2022-10-17T04:29:30.534Z,101847.05
2022-10-17T04:32:47.141Z,101849.45
2022-10-17T04:35:53.775Z,101852.17
2022-10-17T04:39:01.146Z,101854.09
2022-10-17T04:42:06.724Z,101852.19
2022-10-17T04:45:14.130Z,101856.17
2022-10-17T04:48:21.830Z,101868.09
2022-10-17T04:51:31.129Z,101867.84
2022-10-17T04:54:38.820Z,101874.58
2022-10-17T04:57:47.582Z,101874.92
2022-10-17T05:00:54.029Z,101869.48
2022-10-17T05:04:01.294Z,101872.08
2022-10-17T05:07:06.762Z,101874.09
2022-10-17T05:10:14.006Z,101885.85
2022-10-17T05:13:20.628Z,101881.49
2022-10-17T05:16:26.484Z,101888.19
2022-10-17T05:19:25.538Z,101896.67
2022-10-17T05:22:30.903Z,101899.94
2022-10-17T05:25:51.640Z,101895.59
2022-10-17T05:29:00.425Z,101899.67
2022-10-17T05:32:07.756Z,101899.47
2022-10-17T05:35:13.677Z,101897.53
2022-10-17T05:38:21.419Z,101907.41
2022-10-17T05:41:27.588Z,101902.52
2022-10-17T05:44:33.996Z,101909.67
2022-10-17T05:47:40.868Z,101917.50
2022-10-17T05:50:49.108Z,101910.12
2022-10-17T05:53:56.185Z,101913.94
2022-10-17T05:57:12.334Z,101923.95
2022-10-17T06:00:20.421Z,101929.33
2022-10-17T06:03:28.226Z,101921.73
2022-10-17T06:06:36.263Z,101919.39
2022-10-17T06:09:43.438Z,101916.45
2022-10-17T06:12:52.293Z,101920.33
2022-10-17T06:15:58.234Z,101928.78
2022-10-17T06:19:03.776Z,101926.69
2022-10-17T06:22:09.778Z,101924.73
2022-10-17T06:25:15.634Z,101923.02
2022-10-17T06:28:21.931Z,101923.95
2022-10-17T06:31:30.306Z,101928.22
2022-10-17T06:34:36.054Z,101923.39
2022-10-17T06:37:48.039Z,101925.27
2022-10-17T06:40:55.581Z,101924.02
2022-10-17T06:44:02.960Z,101928.45
2022-10-17T06:47:16.519Z,101937.98
2022-10-17T06:50:24.863Z,101941.58
2022-10-17T06:53:33.955Z,101943.63
2022-10-17T06:56:45.107Z,101942.47
2022-10-17T06:59:52.496Z,101944.81
2022-10-17T07:03:00.387Z,101943.00
2022-10-17T07:06:10.200Z,101946.70
2022-10-17T07:09:19.978Z,101945.88
2022-10-17T07:12:24.870Z,101957.64
2022-10-17T07:15:36.404Z,101959.03
2022-10-17T07:18:42.030Z,101956.53
2022-10-17T07:21:51.013Z,101953.81
2022-10-17T07:24:58.353Z,101957.09
2022-10-17T07:28:10.872Z,101955.15
2022-10-17T07:31:26.525Z,101960.25
2022-10-17T07:34:34.411Z,101954.06
2022-10-17T07:37:41.214Z,101963.42
2022-10-17T07:40:49.989Z,101967.09
2022-10-17T07:43:55.708Z,101970.98
2022-10-17T07:47:02.876Z,101972.61
2022-10-17T07:50:09.549Z,101964.12
2022-10-17T07:53:15.734Z,101957.46
2022-10-17T07:56:23.240Z,101960.05
2022-10-17T07:59:29.906Z,101957.48
2022-10-17T08:02:33.799Z,101955.41
2022-10-17T08:05:44.007Z,101955.50
2022-10-17T08:08:43.243Z,101951.16
2022-10-17T08:11:31.342Z,101951.05
2022-10-17T08:14:27.568Z,101942.01
2022-10-17T08:17:13.447Z,101947.94
2022-10-17T08:20:05.696Z,101947.55
2022-10-17T08:23:16.705Z,101949.53
2022-10-17T08:26:26.774Z,101939.64
2022-10-17T08:29:34.037Z,101937.83
2022-10-17T08:32:42.551Z,101949.78
2022-10-17T08:35:48.047Z,101954.77
2022-10-17T08:38:53.815Z,101943.98
2022-10-17T08:42:24.122Z,101957.60
2022-10-17T08:45:46.093Z,101958.34
2022-10-17T08:48:58.469Z,101940.20
2022-10-17T08:52:10.690Z,101940.88
2022-10-17T08:58:56.385Z,101936.20
2022-10-17T09:02:39.267Z,101932.66
2022-10-17T09:06:06.358Z,101940.48
2022-10-17T09:09:40.857Z,101941.84
2022-10-17T09:13:14.441Z,101928.10
2022-10-17T09:16:38.934Z,101930.59
2022-10-17T09:20:18.547Z,101928.38
2022-10-17T09:23:36.166Z,101919.30
2022-10-17T09:26:41.889Z,101922.36
2022-10-17T09:29:47.595Z,101927.17
2022-10-17T09:32:54.592Z,101921.85
2022-10-17T09:36:01.104Z,101916.86
2022-10-17T09:39:22.844Z,101907.20
2022-10-17T09:42:16.203Z,101912.56
2022-10-17T09:45:38.395Z,101910.41
2022-10-17T09:48:59.865Z,101907.84
2022-10-17T09:52:05.063Z,101911.30
2022-10-17T09:55:16.963Z,101910.48
2022-10-17T09:58:23.314Z,101914.12
2022-10-17T10:01:41.317Z,101915.62
2022-10-17T10:05:03.274Z,101912.55
2022-10-17T10:07:54.644Z,101898.80
2022-10-17T10:10:59.898Z,101887.64
2022-10-17T10:14:05.861Z,101889.00
2022-10-17T10:17:13.460Z,101886.09
2022-10-17T10:20:47.918Z,101883.14
2022-10-17T10:23:57.399Z,101872.80
2022-10-17T10:27:05.337Z,101867.97
2022-10-17T10:30:12.440Z,101864.55
2022-10-17T10:33:16.990Z,101870.56
2022-10-17T10:36:22.217Z,101868.03
2022-10-17T10:39:42.869Z,101870.28
2022-10-17T10:42:51.942Z,101867.58
2022-10-17T10:45:58.344Z,101870.49
2022-10-17T10:49:16.452Z,101871.01
2022-10-17T10:52:21.945Z,101874.30
2022-10-17T10:55:53.826Z,101885.31
2022-10-17T10:59:07.758Z,101882.97
2022-10-17T11:02:39.633Z,101881.74
2022-10-17T11:06:13.371Z,101877.20
2022-10-17T11:09:42.703Z,101869.47
2022-10-17T11:13:29.552Z,101871.88
2022-10-17T11:16:41.876Z,101883.23
2022-10-17T11:19:59.597Z,101887.17
2022-10-17T11:23:08.693Z,101879.87
2022-10-17T11:26:17.306Z,101881.33
2022-10-17T11:29:25.295Z,101883.80
2022-10-17T11:32:53.790Z,101881.69
2022-10-17T11:35:54.385Z,101883.80
2022-10-17T11:38:57.709Z,101877.84
2022-10-17T11:42:03.504Z,101873.16
2022-10-17T11:44:50.549Z,101870.75
2022-10-17T11:47:57.768Z,101861.63
2022-10-17T11:54:16.318Z,101854.04
2022-10-17T11:57:50.584Z,101851.35
2022-10-17T12:01:22.915Z,101848.92
2022-10-17T12:04:56.068Z,101848.66
2022-10-17T12:08:20.537Z,101850.89
2022-10-17T12:12:02.870Z,101852.41
2022-10-17T12:15:09.205Z,101855.15
2022-10-17T12:18:17.604Z,101854.23
2022-10-17T12:21:23.068Z,101856.52
2022-10-17T12:24:36.418Z,101863.85
2022-10-17T12:27:54.621Z,101867.36
2022-10-17T12:31:16.428Z,101865.70
2022-10-17T12:34:28.563Z,101880.61
2022-10-17T12:38:00.904Z,101875.19
2022-10-17T12:41:11.569Z,101879.34
2022-10-17T12:44:16.792Z,101875.41
2022-10-17T12:47:28.656Z,101875.92
2022-10-17T12:51:34.919Z,101879.23
2022-10-17T12:54:29.705Z,101885.95
2022-10-17T12:57:59.145Z,101882.50
2022-10-17T13:01:24.706Z,101880.96
2022-10-17T13:04:15.803Z,101881.82
2022-10-17T13:07:22.488Z,101882.80
2022-10-17T13:10:43.205Z,101883.55
2022-10-17T13:14:03.101Z,101887.30
2022-10-17T13:17:16.375Z,101877.18
2022-10-17T13:20:35.045Z,101871.05
2022-10-17T13:23:46.553Z,101877.58
2022-10-17T13:26:51.307Z,101874.43
2022-10-17T13:29:59.228Z,101868.94
2022-10-17T13:33:05.024Z,101871.53
2022-10-17T13:36:10.631Z,101869.95
2022-10-17T13:39:38.207Z,101863.63
2022-10-17T13:42:40.356Z,101858.78
2022-10-17T13:45:49.508Z,101853.07
2022-10-17T13:48:56.548Z,101860.66
2022-10-17T13:52:04.074Z,101852.94
2022-10-17T13:55:11.772Z,101849.89
2022-10-17T13:58:33.020Z,101845.53
2022-10-17T14:01:41.092Z,101843.55
2022-10-17T14:05:15.585Z,101849.12
2022-10-17T14:08:15.126Z,101846.35
2022-10-17T14:11:42.859Z,101842.73
2022-10-17T14:15:09.637Z,101844.29
2022-10-17T14:17:57.857Z,101841.47
2022-10-17T14:24:37.900Z,101846.67
2022-10-17T14:27:49.509Z,101842.09
2022-10-17T14:31:02.773Z,101835.53
2022-10-17T14:34:09.165Z,101828.58
2022-10-17T14:37:15.753Z,101823.34
2022-10-17T14:40:22.349Z,101820.64
2022-10-17T14:43:31.608Z,101818.56
2022-10-17T14:46:38.001Z,101825.95
2022-10-17T14:49:50.717Z,101827.70
2022-10-17T14:52:56.883Z,101820.48
2022-10-17T14:56:13.822Z,101829.38
2022-10-17T14:59:51.764Z,101832.69
2022-10-17T15:02:30.450Z,101841.56
2022-10-17T15:05:36.336Z,101847.32
2022-10-17T15:11:49.933Z,101860.45
2022-10-17T15:14:55.916Z,101867.95
2022-10-17T15:18:02.116Z,101875.28
2022-10-17T15:21:25.621Z,101881.37
2022-10-17T15:24:16.847Z,101880.95
2022-10-17T15:27:35.726Z,101892.59
2022-10-17T15:30:47.023Z,101890.58
2022-10-17T15:33:53.813Z,101896.77
2022-10-17T15:37:06.024Z,101900.84
2022-10-17T15:40:11.085Z,101906.73
2022-10-17T15:43:19.931Z,101907.59
2022-10-17T15:46:32.132Z,101898.67
2022-10-17T15:49:37.809Z,101902.81
2022-10-17T15:52:43.913Z,101894.13
2022-10-17T15:55:50.242Z,101891.52
2022-10-17T15:58:56.653Z,101894.63
2022-10-17T16:02:03.097Z,101896.08
2022-10-17T16:05:09.847Z,101891.97
2022-10-17T16:08:15.890Z,101895.13
2022-10-17T16:11:21.484Z,101896.40
2022-10-17T16:14:30.650Z,101899.42
2022-10-17T16:17:37.274Z,101905.06
2022-10-17T16:20:43.056Z,101902.11
2022-10-17T16:23:48.268Z,101905.14
2022-10-17T16:26:54.602Z,101904.34
2022-10-17T16:30:00.413Z,101905.64
2022-10-17T16:33:07.145Z,101905.14
2022-10-17T16:36:13.699Z,101910.13
2022-10-17T16:39:19.357Z,101907.15
2022-10-17T16:42:25.197Z,101908.32
2022-10-17T16:45:35.103Z,101906.09
2022-10-17T16:51:47.193Z,101908.58
2022-10-17T16:54:53.961Z,101912.00
2022-10-17T16:57:59.905Z,101901.63
2022-10-17T17:01:05.697Z,101904.83
2022-10-17T17:04:12.155Z,101894.06
2022-10-17T17:07:11.203Z,101886.00
2022-10-17T17:10:03.621Z,101877.83
2022-10-17T17:13:10.769Z,101878.95
2022-10-17T17:16:29.844Z,101876.73
2022-10-17T17:19:35.192Z,101878.86
2022-10-17T17:22:43.096Z,101886.44
2022-10-17T17:25:52.193Z,101886.20
2022-10-17T17:28:59.687Z,101893.75
2022-10-17T17:32:07.168Z,101895.89
2022-10-17T17:35:13.498Z,101896.50
2022-10-17T17:38:12.123Z,101899.48
2022-10-17T17:41:18.839Z,101900.23
2022-10-17T17:44:26.424Z,101898.37
2022-10-17T17:47:33.024Z,101896.20
2022-10-17T17:50:33.157Z,101895.21
2022-10-17T17:53:38.610Z,101904.74
2022-10-17T17:56:45.053Z,101904.88
2022-10-17T17:59:50.386Z,101903.02
2022-10-17T18:02:55.987Z,101908.20
2022-10-17T18:06:05.326Z,101901.88
2022-10-17T18:09:13.622Z,101902.25
2022-10-17T18:12:19.368Z,101901.37
2022-10-17T18:15:24.171Z,101904.34
2022-10-17T18:18:29.728Z,101908.06
2022-10-17T18:21:35.704Z,101915.95
2022-10-17T18:24:40.638Z,101908.19
2022-10-17T18:27:45.097Z,101912.00
2022-10-17T18:30:52.734Z,101911.91
2022-10-17T18:33:58.741Z,101914.24
2022-10-17T18:37:05.587Z,101898.30
2022-10-17T18:40:11.750Z,101916.00
2022-10-17T18:43:17.514Z,101914.73
2022-10-17T18:46:25.781Z,101912.85
2022-10-17T18:49:33.315Z,101914.91
2022-10-17T18:52:38.994Z,101912.63
2022-10-17T18:58:50.772Z,101905.22
2022-10-17T19:01:56.513Z,101905.22
2022-10-17T19:05:04.428Z,101917.04
2022-10-17T19:08:10.648Z,101916.22
2022-10-17T19:11:34.202Z,101912.11
2022-10-17T19:14:40.841Z,101919.91
2022-10-17T19:17:48.606Z,101920.61
2022-10-17T19:20:54.969Z,101912.88
2022-10-17T19:24:07.971Z,101916.10
2022-10-17T19:27:14.260Z,101914.61
2022-10-17T19:30:20.720Z,101911.52
2022-10-17T19:36:34.873Z,101920.05
2022-10-17T19:39:40.027Z,101916.71
2022-10-17T19:42:45.409Z,101922.91
2022-10-17T19:45:51.358Z,101921.67
2022-10-17T19:48:57.047Z,101915.48
2022-10-17T19:52:04.019Z,101917.92
2022-10-17T19:55:10.017Z,101918.63
2022-10-17T19:58:15.615Z,101919.94
2022-10-17T20:01:21.948Z,101928.02
2022-10-17T20:04:28.446Z,101927.10
2022-10-17T20:07:34.593Z,101928.22
2022-10-17T20:10:40.912Z,101933.25
2022-10-17T20:13:48.175Z,101932.58
2022-10-17T20:16:55.129Z,101933.92
2022-10-17T20:20:02.368Z,101928.08
2022-10-17T20:23:07.559Z,101923.62
2022-10-17T20:29:34.666Z,101921.27
2022-10-17T20:32:45.838Z,101922.83
2022-10-17T20:35:55.983Z,101917.33
2022-10-17T20:39:01.595Z,101919.27
2022-10-17T20:42:07.427Z,101912.80
2022-10-17T20:45:13.979Z,101918.61
2022-10-17T20:48:20.600Z,101920.81
2022-10-17T20:51:26.075Z,101920.05
2022-10-17T20:54:31.794Z,101918.11
2022-10-17T20:57:37.436Z,101908.80
2022-10-17T21:00:44.200Z,101912.13
2022-10-17T21:03:53.776Z,101902.58
2022-10-17T21:06:59.867Z,101900.50
2022-10-17T21:10:24.038Z,101890.84
2022-10-17T21:13:15.061Z,101883.97
2022-10-17T21:16:22.723Z,101886.55
2022-10-17T21:19:29.971Z,101880.88
2022-10-17T21:22:35.249Z,101880.23
2022-10-17T21:25:40.942Z,101882.30
2022-10-17T21:28:48.485Z,101881.06
2022-10-17T21:31:56.911Z,101875.98
2022-10-17T21:35:02.707Z,101878.06
2022-10-17T21:38:09.046Z,101873.97
2022-10-17T21:41:15.109Z,101874.52
2022-10-17T21:44:24.481Z,101874.01
2022-10-17T21:47:29.934Z,101880.27
2022-10-17T21:50:35.350Z,101874.89
2022-10-17T21:53:40.712Z,101883.18
2022-10-17T21:56:46.886Z,101880.98
2022-10-17T21:59:52.217Z,101876.39
2022-10-17T22:02:58.451Z,101883.00
2022-10-17T22:06:12.933Z,101879.38
2022-10-17T22:09:12.164Z,101872.92
2022-10-17T22:12:18.698Z,101873.20
2022-10-17T22:15:26.448Z,101873.82
2022-10-17T22:18:31.796Z,101874.56
2022-10-17T22:21:36.887Z,101871.28
2022-10-17T22:24:42.668Z,101870.61
2022-10-17T22:27:48.456Z,101865.51
2022-10-17T22:30:55.499Z,101871.59
2022-10-17T22:34:01.062Z,101871.22
2022-10-17T22:37:06.619Z,101873.45
2022-10-17T22:40:13.202Z,101873.45
2022-10-17T22:43:19.881Z,101867.92
2022-10-17T22:46:26.552Z,101864.42
2022-10-17T22:49:31.435Z,101863.16
2022-10-17T22:52:38.335Z,101869.42
2022-10-17T22:55:43.647Z,101863.14
2022-10-17T22:58:48.950Z,101856.44
2022-10-17T23:01:55.598Z,101859.98
2022-10-17T23:05:00.564Z,101867.06
2022-10-17T23:08:08.010Z,101868.20
2022-10-17T23:11:13.744Z,101862.56
2022-10-17T23:14:20.101Z,101867.02
2022-10-17T23:17:26.316Z,101877.96
2022-10-17T23:20:32.358Z,101873.30
2022-10-17T23:23:37.988Z,101877.80
2022-10-17T23:26:43.110Z,101880.43
2022-10-17T23:29:48.955Z,101883.09
2022-10-17T23:32:54.514Z,101879.32
2022-10-17T23:36:00.049Z,101871.50
2022-10-17T23:39:06.073Z,101873.87
2022-10-17T23:42:12.901Z,101876.68
2022-10-17T23:45:20.679Z,101874.50
2022-10-17T23:48:28.203Z,101875.69
2022-10-17T23:51:33.923Z,101875.75
2022-10-17T23:57:46.431Z,101872.22
